createdAt,value
2019-03-18T00:00:48.816Z,7.76
2019-03-18T00:03:19.403Z,7.79
2019-03-18T00:05:50.026Z,7.83
2019-03-18T00:08:20.324Z,7.80
2019-03-18T00:10:50.730Z,7.78
2019-03-18T00:13:20.980Z,7.84
2019-03-18T00:15:51.209Z,7.83
2019-03-18T00:18:21.867Z,7.82
2019-03-18T00:20:53.350Z,7.84
2019-03-18T00:23:23.579Z,7.84
2019-03-18T00:25:53.818Z,7.81
2019-03-18T00:28:24.030Z,7.95
2019-03-18T00:30:54.250Z,7.87
2019-03-18T00:33:24.786Z,7.79
2019-03-18T00:35:55.031Z,7.71
2019-03-18T00:38:25.599Z,7.60
2019-03-18T00:40:55.941Z,7.58
2019-03-18T00:43:27.729Z,7.52
2019-03-18T00:45:57.964Z,7.52
2019-03-18T00:48:28.187Z,7.52
2019-03-18T00:50:58.427Z,7.43
2019-03-18T00:53:28.646Z,7.36
2019-03-18T00:55:58.865Z,7.32
2019-03-18T00:58:29.076Z,7.22
2019-03-18T01:00:59.311Z,7.21
2019-03-18T01:03:29.513Z,7.12
2019-03-18T01:06:00.093Z,7.04
2019-03-18T01:08:30.371Z,6.83
2019-03-18T01:11:00.614Z,6.90
2019-03-18T01:13:30.831Z,6.82
2019-03-18T01:16:01.043Z,6.77
2019-03-18T01:18:31.317Z,6.65
2019-03-18T01:21:01.518Z,6.47
2019-03-18T01:23:31.753Z,6.40
2019-03-18T01:26:01.984Z,6.36
2019-03-18T01:28:33.763Z,6.43
2019-03-18T01:31:04.381Z,6.50
2019-03-18T01:33:34.672Z,6.54
2019-03-18T01:36:04.898Z,6.63
2019-03-18T01:38:35.156Z,6.59
2019-03-18T01:41:05.787Z,6.59
2019-03-18T01:43:37.600Z,6.67
2019-03-18T01:46:07.807Z,6.68
2019-03-18T01:48:38.386Z,6.68
2019-03-18T01:51:10.217Z,6.73
2019-03-18T01:53:42.384Z,6.73
2019-03-18T01:56:13.140Z,6.70
2019-03-18T01:58:43.776Z,6.70
2019-03-18T02:01:14.420Z,6.75
2019-03-18T02:03:45.813Z,6.72
2019-03-18T02:06:16.391Z,6.70
2019-03-18T02:08:47.054Z,6.72
2019-03-18T02:11:17.736Z,6.73
2019-03-18T02:13:49.709Z,6.74
2019-03-18T02:16:20.184Z,6.73
2019-03-18T02:18:50.831Z,6.71
2019-03-18T02:21:21.097Z,6.74
2019-03-18T02:23:51.332Z,6.72
2019-03-18T02:26:21.582Z,6.77
2019-03-18T02:28:51.794Z,6.78
2019-03-18T02:31:22.016Z,6.81
2019-03-18T02:33:52.424Z,6.81
2019-03-18T02:36:22.879Z,6.94
2019-03-18T02:38:53.117Z,6.89
2019-03-18T02:41:23.332Z,6.86
2019-03-18T02:43:53.549Z,6.82
2019-03-18T02:46:23.825Z,6.87
2019-03-18T02:48:54.041Z,6.87
2019-03-18T02:51:24.259Z,6.83
2019-03-18T02:53:54.485Z,6.82
2019-03-18T02:56:24.690Z,6.77
2019-03-18T02:58:54.891Z,6.75
2019-03-18T03:01:25.503Z,6.80
2019-03-18T03:03:55.855Z,6.61
2019-03-18T03:06:26.099Z,6.46
2019-03-18T03:08:56.292Z,6.32
2019-03-18T03:11:26.530Z,6.28
2019-03-18T03:13:56.824Z,6.24
2019-03-18T03:16:27.761Z,6.14
2019-03-18T03:18:58.258Z,6.09
2019-03-18T03:21:28.511Z,6.11
2019-03-18T03:23:59.092Z,6.08
2019-03-18T03:26:29.371Z,6.06
2019-03-18T03:28:59.995Z,6.02
2019-03-18T03:31:30.697Z,5.99
2019-03-18T03:34:03.404Z,5.99
2019-03-18T03:36:33.940Z,5.95
2019-03-18T03:39:06.289Z,5.94
2019-03-18T03:41:36.916Z,5.92
2019-03-18T03:44:07.648Z,5.93
2019-03-18T03:46:43.700Z,5.95
2019-03-18T03:49:10.244Z,5.93
2019-03-18T03:51:40.459Z,5.94
2019-03-18T03:54:11.031Z,5.93
2019-03-18T03:56:41.453Z,5.92
2019-03-18T03:59:11.670Z,5.89
2019-03-18T04:01:41.893Z,5.85
2019-03-18T04:04:12.524Z,5.84
2019-03-18T04:06:42.849Z,5.83
2019-03-18T04:09:14.706Z,5.86
2019-03-18T04:11:44.937Z,5.83
2019-03-18T04:14:15.209Z,5.83
2019-03-18T04:16:55.900Z,5.81
2019-03-18T04:19:17.489Z,5.81
2019-03-18T04:21:50.617Z,5.82
2019-03-18T04:24:20.002Z,5.79
2019-03-18T04:26:50.704Z,5.81
2019-03-18T04:29:22.539Z,5.81
2019-03-18T04:31:52.726Z,5.81
2019-03-18T04:34:23.015Z,5.82
2019-03-18T04:36:53.167Z,5.80
2019-03-18T04:39:23.404Z,5.77
2019-03-18T04:41:53.629Z,5.79
2019-03-18T04:44:23.850Z,5.79
2019-03-18T04:46:54.169Z,5.78
2019-03-18T04:49:24.369Z,5.79
2019-03-18T04:51:54.941Z,5.81
2019-03-18T04:54:25.230Z,5.81
2019-03-18T04:56:55.458Z,5.79
2019-03-18T04:59:26.080Z,5.81
2019-03-18T05:01:56.352Z,5.82
2019-03-18T05:04:26.959Z,5.86
2019-03-18T05:06:57.296Z,5.82
2019-03-18T05:09:27.909Z,5.85
2019-03-18T05:11:58.571Z,5.86
2019-03-18T05:14:29.829Z,5.86
2019-03-18T05:17:00.412Z,5.85
2019-03-18T05:19:30.712Z,5.86
2019-03-18T05:22:00.950Z,5.85
2019-03-18T05:24:31.900Z,5.85
2019-03-18T05:27:02.738Z,5.86
2019-03-18T05:29:35.444Z,5.88
2019-03-18T05:32:05.645Z,5.90
2019-03-18T05:34:35.872Z,5.95
2019-03-18T05:37:07.377Z,5.99
2019-03-18T05:39:37.975Z,6.04
2019-03-18T05:42:08.602Z,6.08
2019-03-18T05:44:39.252Z,6.12
2019-03-18T05:47:09.531Z,6.19
2019-03-18T05:49:39.766Z,6.21
2019-03-18T05:52:09.991Z,6.29
2019-03-18T05:54:40.212Z,6.34
2019-03-18T05:57:10.483Z,6.44
2019-03-18T05:59:40.701Z,6.57
2019-03-18T06:02:12.970Z,6.66
2019-03-18T06:04:43.211Z,6.72
2019-03-18T06:07:13.811Z,6.79
2019-03-18T06:09:44.160Z,6.77
2019-03-18T06:12:15.170Z,6.76
2019-03-18T06:14:45.797Z,6.75
2019-03-18T06:17:16.141Z,6.72
2019-03-18T06:19:48.298Z,6.73
2019-03-18T06:22:18.947Z,6.71
2019-03-18T06:24:49.576Z,6.73
2019-03-18T06:27:20.227Z,6.86
2019-03-18T06:29:50.531Z,6.88
2019-03-18T06:32:22.847Z,7.01
2019-03-18T06:34:54.029Z,7.13
2019-03-18T06:37:24.312Z,7.27
2019-03-18T06:39:54.880Z,7.38
2019-03-18T06:42:25.570Z,7.61
2019-03-18T06:44:55.900Z,7.92
2019-03-18T06:47:26.448Z,8.15
2019-03-18T06:49:56.772Z,8.23
2019-03-18T06:52:27.349Z,8.34
2019-03-18T06:54:59.158Z,8.40
2019-03-18T06:57:29.803Z,8.37
2019-03-18T07:00:00.182Z,8.39
2019-03-18T07:02:31.149Z,8.49
2019-03-18T07:05:01.835Z,8.62
2019-03-18T07:07:32.101Z,8.86
2019-03-18T07:10:02.306Z,8.98
2019-03-18T07:12:33.571Z,8.95
2019-03-18T07:15:04.824Z,9.04
2019-03-18T07:17:35.959Z,9.04
2019-03-18T07:20:11.461Z,9.07
2019-03-18T07:22:41.879Z,9.09
2019-03-18T07:25:12.904Z,9.22
2019-03-18T07:27:43.292Z,9.53
2019-03-18T07:30:16.122Z,9.92
2019-03-18T07:32:46.436Z,10.52
2019-03-18T07:35:17.158Z,11.13
2019-03-18T07:37:48.161Z,12.22
2019-03-18T07:40:19.017Z,13.19
2019-03-18T07:42:49.555Z,14.09
2019-03-18T07:45:20.670Z,15.43
2019-03-18T07:47:51.622Z,16.25
2019-03-18T07:50:22.274Z,16.33
2019-03-18T07:52:52.902Z,16.50
2019-03-18T07:55:25.647Z,16.48
2019-03-18T07:57:56.256Z,16.92
2019-03-18T08:00:26.552Z,17.04
2019-03-18T08:02:57.321Z,16.74
2019-03-18T08:05:29.628Z,16.03
2019-03-18T08:08:00.057Z,15.58
2019-03-18T08:10:30.318Z,15.31
2019-03-18T08:13:02.987Z,15.04
2019-03-18T08:15:33.310Z,14.74
2019-03-18T08:18:04.329Z,15.22
2019-03-18T08:20:34.750Z,16.11
2019-03-18T08:23:05.563Z,16.68
2019-03-18T08:25:35.988Z,17.25
2019-03-18T08:28:06.569Z,17.50
2019-03-18T08:30:37.207Z,17.41
2019-03-18T08:33:08.820Z,16.92
2019-03-18T08:35:40.089Z,16.33
2019-03-18T08:38:11.908Z,16.11
2019-03-18T08:40:45.161Z,16.45
2019-03-18T08:43:15.498Z,16.60
2019-03-18T08:45:49.453Z,16.26
2019-03-18T08:48:21.806Z,15.89
2019-03-18T08:50:52.231Z,15.31
2019-03-18T08:53:22.710Z,14.68
2019-03-18T08:55:53.719Z,14.31
2019-03-18T08:58:26.751Z,13.89
2019-03-18T09:01:03.737Z,13.57
2019-03-18T09:03:35.444Z,13.48
2019-03-18T09:06:05.718Z,13.35
2019-03-18T09:08:38.213Z,13.39
2019-03-18T09:11:08.884Z,13.37
2019-03-18T09:13:39.448Z,13.36
2019-03-18T09:16:10.390Z,13.33
2019-03-18T09:18:43.686Z,13.55
2019-03-18T09:21:14.032Z,13.76
2019-03-18T09:23:44.402Z,13.77
2019-03-18T09:26:14.613Z,13.75
2019-03-18T09:28:44.910Z,13.68
2019-03-18T09:31:15.366Z,13.60
2019-03-18T09:33:47.430Z,13.77
2019-03-18T09:36:18.943Z,13.99
2019-03-18T09:38:49.574Z,14.51
2019-03-18T09:41:20.013Z,14.68
2019-03-18T09:43:50.265Z,14.82
2019-03-18T09:46:21.021Z,14.75
2019-03-18T09:48:51.819Z,14.68
2019-03-18T09:51:22.172Z,14.47
2019-03-18T09:53:55.036Z,14.26
2019-03-18T09:56:27.431Z,14.10
2019-03-18T09:58:57.783Z,14.15
2019-03-18T10:01:29.866Z,14.28
2019-03-18T10:04:01.836Z,14.62
2019-03-18T10:06:32.648Z,14.95
2019-03-18T10:09:03.187Z,15.32
2019-03-18T10:11:33.792Z,15.63
2019-03-18T10:14:04.117Z,15.99
2019-03-18T10:16:37.524Z,16.15
2019-03-18T10:19:08.375Z,15.98
2019-03-18T10:21:39.873Z,15.61
2019-03-18T10:24:10.211Z,15.24
2019-03-18T10:26:40.937Z,14.96
2019-03-18T10:29:11.617Z,14.82
2019-03-18T10:31:41.913Z,15.04
2019-03-18T10:34:12.141Z,14.90
2019-03-18T10:36:42.702Z,14.53
2019-03-18T10:39:14.051Z,14.26
2019-03-18T10:41:45.317Z,14.06
2019-03-18T10:44:16.155Z,13.99
2019-03-18T10:46:46.909Z,14.01
2019-03-18T10:49:17.404Z,14.11
2019-03-18T10:51:48.370Z,14.12
2019-03-18T10:54:30.433Z,13.88
2019-03-18T10:56:55.007Z,13.66
2019-03-18T10:59:30.229Z,13.48
2019-03-18T11:02:01.139Z,13.35
2019-03-18T11:04:31.800Z,13.29
2019-03-18T11:07:02.869Z,13.41
2019-03-18T11:09:34.016Z,13.44
2019-03-18T11:12:04.883Z,13.57
2019-03-18T11:14:35.758Z,13.75
2019-03-18T11:17:06.664Z,13.78
2019-03-18T11:19:37.554Z,13.75
2019-03-18T11:22:08.159Z,13.78
2019-03-18T11:24:38.830Z,13.72
2019-03-18T11:27:12.894Z,13.55
2019-03-18T11:29:45.436Z,13.29
2019-03-18T11:32:16.116Z,13.18
2019-03-18T11:34:46.659Z,12.98
2019-03-18T11:37:17.069Z,13.03
2019-03-18T11:39:47.723Z,13.25
2019-03-18T11:42:18.638Z,13.44
2019-03-18T11:44:50.819Z,13.57
2019-03-18T11:47:22.862Z,13.43
2019-03-18T11:49:53.695Z,13.42
2019-03-18T11:52:24.515Z,13.44
2019-03-18T11:54:55.086Z,13.62
2019-03-18T11:57:25.717Z,14.02
2019-03-18T11:59:59.398Z,14.19
2019-03-18T12:02:31.902Z,13.99
2019-03-18T12:05:09.440Z,13.76
2019-03-18T12:07:41.157Z,13.47
2019-03-18T12:10:14.645Z,13.39
2019-03-18T12:12:44.928Z,13.30
2019-03-18T12:15:17.447Z,13.10
2019-03-18T12:17:48.160Z,13.00
2019-03-18T12:20:24.904Z,13.00
2019-03-18T12:22:55.063Z,13.08
2019-03-18T12:25:25.946Z,13.03
2019-03-18T12:27:58.239Z,13.06
2019-03-18T12:30:31.289Z,12.94
2019-03-18T12:33:01.883Z,12.86
2019-03-18T12:35:32.540Z,12.80
2019-03-18T12:38:04.825Z,12.77
2019-03-18T12:40:35.686Z,12.78
2019-03-18T12:43:06.325Z,12.79
2019-03-18T12:45:37.330Z,12.79
2019-03-18T12:48:08.208Z,12.79
2019-03-18T12:50:54.542Z,13.01
2019-03-18T12:53:11.364Z,13.37
2019-03-18T12:55:41.704Z,13.50
2019-03-18T12:58:12.283Z,13.53
2019-03-18T13:00:43.084Z,13.34
2019-03-18T13:03:13.824Z,13.05
2019-03-18T13:05:44.509Z,12.86
2019-03-18T13:08:15.735Z,12.74
2019-03-18T13:10:46.160Z,12.60
2019-03-18T13:13:16.794Z,12.33
2019-03-18T13:15:47.130Z,12.16
2019-03-18T13:18:18.516Z,12.27
2019-03-18T13:20:48.841Z,12.44
2019-03-18T13:23:20.642Z,12.72
2019-03-18T13:25:50.986Z,12.78
2019-03-18T13:28:21.645Z,12.64
2019-03-18T13:30:54.859Z,12.53
2019-03-18T13:33:25.800Z,12.36
2019-03-18T13:35:56.469Z,12.19
2019-03-18T13:38:27.188Z,12.19
2019-03-18T13:40:58.012Z,12.14
2019-03-18T13:43:29.566Z,12.14
2019-03-18T13:46:06.976Z,12.13
2019-03-18T13:48:37.255Z,12.12
2019-03-18T13:51:20.042Z,11.99
2019-03-18T13:53:39.800Z,11.86
2019-03-18T13:56:10.109Z,11.70
2019-03-18T13:58:40.327Z,11.56
2019-03-18T14:01:10.972Z,11.44
2019-03-18T14:03:41.276Z,11.31
2019-03-18T14:06:11.560Z,11.19
2019-03-18T14:08:42.157Z,11.20
2019-03-18T14:11:12.832Z,11.12
2019-03-18T14:13:43.182Z,11.07
2019-03-18T14:16:13.440Z,11.11
2019-03-18T14:18:45.635Z,11.24
2019-03-18T14:21:16.998Z,11.29
2019-03-18T14:23:49.166Z,11.25
2019-03-18T14:26:20.605Z,11.16
2019-03-18T14:28:50.897Z,10.96
2019-03-18T14:31:21.637Z,10.85
2019-03-18T14:33:52.819Z,10.72
2019-03-18T14:36:23.469Z,10.63
2019-03-18T14:38:54.143Z,10.55
2019-03-18T14:41:24.453Z,10.49
2019-03-18T14:43:55.024Z,10.30
2019-03-18T14:46:25.340Z,10.15
2019-03-18T14:48:55.567Z,10.03
2019-03-18T14:51:26.166Z,9.96
2019-03-18T14:53:56.450Z,9.90
2019-03-18T14:56:32.229Z,9.91
2019-03-18T14:59:02.839Z,9.93
2019-03-18T15:01:34.621Z,9.96
2019-03-18T15:04:05.007Z,9.91
2019-03-18T15:06:35.749Z,9.85
2019-03-18T15:09:08.791Z,9.85
2019-03-18T15:11:39.506Z,9.75
2019-03-18T15:14:10.374Z,9.68
2019-03-18T15:16:42.632Z,9.59
2019-03-18T15:19:16.626Z,9.57
2019-03-18T15:21:58.023Z,9.47
2019-03-18T15:24:19.664Z,9.48
2019-03-18T15:26:49.966Z,9.34
2019-03-18T15:29:20.694Z,9.13
2019-03-18T15:31:52.373Z,9.04
2019-03-18T15:34:25.864Z,9.00
2019-03-18T15:36:56.486Z,8.80
2019-03-18T15:39:27.115Z,8.67
2019-03-18T15:41:57.787Z,8.64
2019-03-18T15:44:28.060Z,8.61
2019-03-18T15:46:58.296Z,8.50
2019-03-18T15:49:29.608Z,8.47
2019-03-18T15:52:10.409Z,8.40
2019-03-18T15:54:32.165Z,8.32
2019-03-18T15:57:04.556Z,8.29
2019-03-18T15:59:35.340Z,8.13
2019-03-18T16:02:05.751Z,8.01
2019-03-18T16:04:36.558Z,7.89
2019-03-18T16:07:08.502Z,7.82
2019-03-18T16:09:38.816Z,7.72
2019-03-18T16:12:12.312Z,7.63
2019-03-18T16:14:41.857Z,7.57
2019-03-18T16:17:12.290Z,7.43
2019-03-18T16:19:42.720Z,7.29
2019-03-18T16:22:22.959Z,7.23
2019-03-18T16:24:46.746Z,7.09
2019-03-18T16:27:17.110Z,7.00
2019-03-18T16:29:48.631Z,6.87
2019-03-18T16:32:19.737Z,6.81
2019-03-18T16:34:53.559Z,6.75
2019-03-18T16:37:24.315Z,6.77
2019-03-18T16:39:56.171Z,6.83
2019-03-18T16:42:27.686Z,6.87
2019-03-18T16:44:58.243Z,6.95
2019-03-18T16:47:31.329Z,7.07
2019-03-18T16:50:01.668Z,7.10
2019-03-18T16:52:35.930Z,7.04
2019-03-18T16:55:05.082Z,7.05
2019-03-18T16:57:35.760Z,7.09
2019-03-18T17:00:13.434Z,6.97
2019-03-18T17:02:44.253Z,6.82
2019-03-18T17:05:16.716Z,6.78
2019-03-18T17:07:47.292Z,6.65
2019-03-18T17:10:17.912Z,6.54
2019-03-18T17:12:48.520Z,6.41
2019-03-18T17:15:22.915Z,6.33
2019-03-18T17:17:53.582Z,6.26
2019-03-18T17:20:23.817Z,6.13
2019-03-18T17:22:54.064Z,6.13
2019-03-18T17:25:33.126Z,6.05
2019-03-18T17:28:03.776Z,6.12
2019-03-18T17:30:35.585Z,6.08
2019-03-18T17:33:06.228Z,6.04
2019-03-18T17:35:36.525Z,6.02
2019-03-18T17:38:06.998Z,5.97
2019-03-18T17:40:37.254Z,5.91
2019-03-18T17:43:07.824Z,5.85
2019-03-18T17:45:41.756Z,5.76
2019-03-18T17:48:11.969Z,5.71
2019-03-18T17:50:42.265Z,5.63
2019-03-18T17:53:12.499Z,5.58
2019-03-18T17:55:44.292Z,5.52
2019-03-18T17:58:14.567Z,5.53
2019-03-18T18:00:46.425Z,5.48
2019-03-18T18:03:18.670Z,5.45
2019-03-18T18:05:51.490Z,5.43
2019-03-18T18:08:21.855Z,5.35
2019-03-18T18:10:52.485Z,5.31
2019-03-18T18:13:26.872Z,5.26
2019-03-18T18:15:57.208Z,5.23
2019-03-18T18:18:30.562Z,5.22
2019-03-18T18:21:00.839Z,5.20
2019-03-18T18:23:31.146Z,5.16
2019-03-18T18:26:01.370Z,5.15
2019-03-18T18:28:31.632Z,5.16
2019-03-18T18:31:01.859Z,5.18
2019-03-18T18:33:32.068Z,5.18
2019-03-18T18:36:02.354Z,5.19
2019-03-18T18:38:32.980Z,5.21
2019-03-18T18:41:03.803Z,5.24
2019-03-18T18:43:44.229Z,5.31
2019-03-18T18:46:17.753Z,5.28
2019-03-18T18:48:48.488Z,5.26
2019-03-18T18:51:18.726Z,5.26
2019-03-18T18:53:49.333Z,5.26
2019-03-18T18:56:19.650Z,5.27
2019-03-18T18:58:50.231Z,5.22
2019-03-18T19:01:20.538Z,5.21
2019-03-18T19:03:50.741Z,5.17
2019-03-18T19:06:21.601Z,5.14
2019-03-18T19:08:52.310Z,5.12
2019-03-18T19:11:22.610Z,5.13
2019-03-18T19:13:53.080Z,5.12
2019-03-18T19:16:23.765Z,5.07
2019-03-18T19:18:54.051Z,5.07
2019-03-18T19:21:26.076Z,5.07
2019-03-18T19:23:57.090Z,5.00
2019-03-18T19:26:27.428Z,4.99
2019-03-18T19:28:57.640Z,4.96
2019-03-18T19:31:28.213Z,4.92
2019-03-18T19:33:58.672Z,4.89
2019-03-18T19:36:29.176Z,4.84
2019-03-18T19:39:04.728Z,4.78
2019-03-18T19:41:35.727Z,4.75
2019-03-18T19:44:05.963Z,4.72
2019-03-18T19:46:36.349Z,4.70
2019-03-18T19:49:07.220Z,4.65
2019-03-18T19:51:37.614Z,4.61
2019-03-18T19:54:07.808Z,4.62
2019-03-18T19:56:38.039Z,4.59
2019-03-18T19:59:11.246Z,4.58
2019-03-18T20:01:41.556Z,4.56
2019-03-18T20:04:23.586Z,4.55
2019-03-18T20:06:54.153Z,4.53
2019-03-18T20:11:53.967Z,4.42
2019-03-18T20:14:24.543Z,4.34
2019-03-18T20:16:56.394Z,4.29
2019-03-18T20:19:27.164Z,4.25
2019-03-18T20:21:57.806Z,4.16
2019-03-18T20:24:28.172Z,4.13
2019-03-18T20:26:58.395Z,4.07
2019-03-18T20:29:28.644Z,4.06
2019-03-18T20:31:58.866Z,4.01
2019-03-18T20:34:29.475Z,3.96
2019-03-18T20:37:00.122Z,3.98
2019-03-18T20:39:30.491Z,3.94
2019-03-18T20:42:00.756Z,3.87
2019-03-18T20:44:31.005Z,3.84
2019-03-18T20:47:01.677Z,3.80
2019-03-18T20:49:32.699Z,3.82
2019-03-18T20:52:16.317Z,3.86
2019-03-18T20:54:38.325Z,3.85
2019-03-18T20:57:09.506Z,3.81
2019-03-18T20:59:39.724Z,3.76
2019-03-18T21:02:10.481Z,3.74
2019-03-18T21:04:41.983Z,3.77
2019-03-18T21:07:12.234Z,3.67
2019-03-18T21:09:42.787Z,3.63
2019-03-18T21:12:13.451Z,3.63
2019-03-18T21:14:45.223Z,3.61
2019-03-18T21:17:18.021Z,3.54
2019-03-18T21:19:48.365Z,3.50
2019-03-18T21:22:18.968Z,3.45
2019-03-18T21:24:49.248Z,3.41
2019-03-18T21:27:19.828Z,3.45
2019-03-18T21:29:52.376Z,3.43
2019-03-18T21:32:24.287Z,3.39
2019-03-18T21:34:54.941Z,3.37
2019-03-18T21:37:25.586Z,3.34
2019-03-18T21:39:56.314Z,3.27
2019-03-18T21:42:26.987Z,3.30
2019-03-18T21:44:57.617Z,3.28
2019-03-18T21:47:29.554Z,3.25
2019-03-18T21:50:01.752Z,3.23
2019-03-18T21:52:32.818Z,3.21
2019-03-18T21:55:03.630Z,3.14
2019-03-18T21:57:34.385Z,3.14
2019-03-18T22:00:09.766Z,3.04
2019-03-18T22:02:40.989Z,3.03
2019-03-18T22:05:11.331Z,3.00
2019-03-18T22:07:41.661Z,2.95
2019-03-18T22:10:14.748Z,2.91
2019-03-18T22:12:46.367Z,2.89
2019-03-18T22:15:18.087Z,2.85
2019-03-18T22:17:48.653Z,2.80
2019-03-18T22:20:19.807Z,2.74
2019-03-18T22:22:50.040Z,2.73
2019-03-18T22:25:20.681Z,2.71
2019-03-18T22:27:51.150Z,2.75
2019-03-18T22:30:22.635Z,2.76
2019-03-18T22:32:54.672Z,2.76
2019-03-18T22:35:25.377Z,2.73
2019-03-18T22:37:55.765Z,2.77
2019-03-18T22:40:26.088Z,2.71
2019-03-18T22:42:56.684Z,2.63
2019-03-18T22:45:27.309Z,2.59
2019-03-18T22:47:58.033Z,2.57
2019-03-18T22:50:28.347Z,2.41
2019-03-18T22:52:58.921Z,2.47
2019-03-18T22:55:29.586Z,2.41
2019-03-18T22:57:59.899Z,2.41
2019-03-18T23:00:33.184Z,2.40
2019-03-18T23:03:04.306Z,2.36
2019-03-18T23:05:35.025Z,2.33
2019-03-18T23:08:06.027Z,2.30
2019-03-18T23:10:36.361Z,2.27
2019-03-18T23:13:06.565Z,2.28
2019-03-18T23:15:38.911Z,2.27
2019-03-18T23:18:09.222Z,2.25
2019-03-18T23:20:39.466Z,2.16
2019-03-18T23:23:10.037Z,2.21
2019-03-18T23:25:40.376Z,2.15
2019-03-18T23:28:10.934Z,2.09
2019-03-18T23:30:41.595Z,2.08
2019-03-18T23:33:11.963Z,2.00
2019-03-18T23:35:42.539Z,1.92
2019-03-18T23:38:12.834Z,1.87
2019-03-18T23:40:44.510Z,1.80
2019-03-18T23:43:15.142Z,1.76
2019-03-18T23:45:45.855Z,1.78
2019-03-18T23:48:16.499Z,1.71
2019-03-18T23:50:47.992Z,1.70
2019-03-18T23:53:18.573Z,1.65
2019-03-18T23:55:48.868Z,1.65
2019-03-18T23:58:19.083Z,1.62
